This is the latest recevied weather packets stored in our database for station/object OE-11373. If no packets are shown the sender has not sent any weather packets the latest 10 day(s).
| Time | Temp. | Humidity | Pressure | Rain* | Wind** | Luminosity | Snow |
|---|---|---|---|---|---|---|---|
| 1788081086 | 17.78° C | 58% | 854.1 hPa | - | - | - | - |
| 1788080712 | 18.33° C | 60% | 854.3 hPa | - | - | - | - |
| 1788080113 | 17.78° C | 58% | 854.2 hPa | - | - | - | - |
| 1788079286 | 17.78° C | 59% | 854.2 hPa | - | - | - | - |
| 1788078912 | 17.78° C | 59% | 854.1 hPa | - | - | - | - |
| 1788078313 | 17.78° C | 59% | 854.2 hPa | - | - | - | - |
| 1788077485 | 17.78° C | 60% | 854.2 hPa | - | - | - | - |
| 1788077113 | 17.78° C | 61% | 854.2 hPa | - | - | - | - |
| 1788076513 | 17.78° C | 59% | 854.1 hPa | - | - | - | - |
| 1788075685 | 17.78° C | 60% | 854 hPa | - | - | - | - |
| 1788075312 | 17.22° C | 59% | 853.9 hPa | - | - | - | - |
| 1788074713 | 17.22° C | 59% | 853.9 hPa | - | - | - | - |
| 1788073886 | 16.67° C | 60% | 853.6 hPa | - | - | - | - |
| 1788073512 | 16.67° C | 60% | 853.6 hPa | - | - | - | - |
| 1788072912 | 16.67° C | 60% | 853.5 hPa | - | - | - | - |
| 1788072086 | 16.11° C | 61% | 853.4 hPa | - | - | - | - |
| 1788071713 | 16.11° C | 60% | 853.4 hPa | - | - | - | - |
| 1788071113 | 16.11° C | 60% | 853.4 hPa | - | - | - | - |
| 1788070286 | 16.11° C | 60% | 853.4 hPa | - | - | - | - |
| 1788069912 | 16.11° C | 61% | 853.3 hPa | - | - | - | - |
| 1788069313 | 16.11° C | 61% | 853.2 hPa | - | - | - | - |
| 1788068486 | 15.56° C | 62% | 853.1 hPa | - | - | - | - |
| 1788068113 | 15.56° C | 61% | 853 hPa | - | - | - | - |
| 1788067513 | 16.11° C | 61% | 853 hPa | - | - | - | - |
| 1788066686 | 16.11° C | 61% | 853 hPa | - | - | - | - |
* Rain since midnight (hover to see other rain measurements)
** Current wind speed in m/s (hover to see current wind gust speed)